Time;durP1;ratioP1;P1;durP2;ratioP2;P2;SDS_P1;SDS_P2;PMS_P1;PMS_P2;Temp;Humidity;BMP_temperature;BMP_pressure;BME280_temperature;BME280_humidity;BME280_pressure;Samples;Min_cycle;Max_cycle;Signal;HPM_P1;HPM_P2
2021/03/23 00:01:40;;;;;;;17.17;5.70;;;;;;;5.41;84.86;101389.75;5015085;28;20053;-71
2021/03/23 00:04:08;;;;;;;8.75;4.38;;;;;;;5.50;84.40;101386.91;4996058;28;20409;-69
2021/03/23 00:06:35;;;;;;;16.38;5.07;;;;;;;5.46;85.34;101393.09;4994619;28;20057;-70
2021/03/23 00:09:04;;;;;;;18.05;4.93;;;;;;;5.50;85.14;101383.44;5020267;28;20051;-73
2021/03/23 00:11:38;;;;;;;11.13;4.28;;;;;;;5.54;85.23;101383.31;5008536;28;20072;-70
2021/03/23 00:14:09;;;;;;;13.60;4.60;;;;;;;5.51;85.02;101388.63;5034476;28;20041;-72
2021/03/23 00:16:41;;;;;;;13.38;5.32;;;;;;;5.47;85.76;101391.34;5012313;28;20059;-71
2021/03/23 00:19:09;;;;;;;13.00;5.57;;;;;;;5.40;86.51;101397.59;5012292;28;20052;-70
2021/03/23 00:21:36;;;;;;;12.60;5.20;;;;;;;5.43;86.01;101393.16;5034063;28;20044;-71
2021/03/23 00:24:04;;;;;;;16.10;5.45;;;;;;;5.45;87.21;101398.34;4973144;28;20042;-71
2021/03/23 00:26:31;;;;;;;11.30;5.22;;;;;;;5.36;89.01;101396.84;4998516;28;20056;-71
2021/03/23 00:28:58;;;;;;;15.80;5.43;;;;;;;5.18;90.92;101395.53;4999390;28;20636;-72
2021/03/23 00:31:28;;;;;;;22.90;5.88;;;;;;;5.13;92.28;101402.59;5012045;28;20569;-71
2021/03/23 00:34:03;;;;;;;16.10;5.35;;;;;;;5.07;92.75;101393.19;5018469;28;20037;-69
2021/03/23 00:36:35;;;;;;;13.80;4.90;;;;;;;5.12;93.62;101392.22;5014742;28;20125;-70
2021/03/23 00:39:04;;;;;;;14.85;5.60;;;;;;;5.05;93.64;101396.72;5020515;28;20489;-71
2021/03/23 00:41:33;;;;;;;13.25;4.82;;;;;;;5.04;94.00;101393.28;5028196;28;20050;-71
2021/03/23 00:44:00;;;;;;;12.93;5.40;;;;;;;5.19;93.67;101394.66;5020716;28;20109;-70
2021/03/23 00:46:26;;;;;;;18.02;5.35;;;;;;;5.03;94.48;101388.91;5008399;28;20049;-70
2021/03/23 00:48:53;;;;;;;6.75;4.05;;;;;;;5.07;94.21;101395.78;5010415;28;20513;-71
2021/03/23 00:51:21;;;;;;;14.82;5.75;;;;;;;5.16;94.01;101381.66;5022139;28;20848;-72
2021/03/23 00:53:48;;;;;;;13.77;5.28;;;;;;;5.17;94.44;101383.38;5034308;28;20045;-70
2021/03/23 00:56:15;;;;;;;11.30;5.00;;;;;;;5.08;95.02;101380.97;5019674;28;20053;-72
2021/03/23 00:58:42;;;;;;;17.45;4.47;;;;;;;5.07;94.44;101385.34;5000024;28;20057;-71
2021/03/23 01:01:08;;;;;;;15.52;4.80;;;;;;;5.05;94.75;101381.94;5029710;28;20052;-71
2021/03/23 01:03:35;;;;;;;14.43;4.63;;;;;;;5.17;93.82;101390.34;5029383;28;20081;-71
2021/03/23 01:06:02;;;;;;;14.98;5.45;;;;;;;5.16;94.75;101389.50;5000787;28;20044;-69
2021/03/23 01:08:29;;;;;;;21.13;6.80;;;;;;;5.17;93.74;101392.94;5024216;28;20058;-71
2021/03/23 01:10:55;;;;;;;16.92;10.57;;;;;;;5.09;94.91;101395.78;5007131;28;20049;-70
2021/03/23 01:13:23;;;;;;;49.40;31.63;;;;;;;5.02;94.50;101387.22;4988605;28;20042;-71
2021/03/23 01:15:49;;;;;;;38.33;29.67;;;;;;;5.16;94.70;101391.25;5000357;28;20049;-70
2021/03/23 01:18:16;;;;;;;44.67;31.70;;;;;;;5.14;94.48;101403.50;5003405;28;20579;-70
2021/03/23 01:20:43;;;;;;;28.48;19.95;;;;;;;5.16;94.22;101389.50;4994546;28;20153;-70
2021/03/23 01:23:10;;;;;;;24.50;15.13;;;;;;;5.07;94.53;101385.34;5029613;28;20552;-70
2021/03/23 01:25:37;;;;;;;42.40;20.33;;;;;;;5.00;94.46;101391.63;5023973;28;20565;-70
2021/03/23 01:28:03;;;;;;;42.70;22.45;;;;;;;5.05;94.69;101391.50;5017348;28;20068;-69
2021/03/23 01:30:30;;;;;;;41.30;24.42;;;;;;;5.08;94.46;101396.63;5036415;28;20061;-71
2021/03/23 01:32:57;;;;;;;48.03;25.25;;;;;;;5.09;94.00;101395.78;5035790;28;20049;-69
2021/03/23 01:35:25;;;;;;;59.70;25.13;;;;;;;5.10;94.09;101391.41;5013410;28;20152;-70
2021/03/23 01:37:53;;;;;;;51.33;22.80;;;;;;;5.01;93.93;101392.47;5006347;28;20136;-71
2021/03/23 01:40:24;;;;;;;30.27;12.90;;;;;;;4.88;94.80;101401.47;5023682;28;20774;-72
2021/03/23 01:42:56;;;;;;;22.10;8.82;;;;;;;5.02;95.12;101392.44;4981201;28;20050;-70
2021/03/23 01:45:25;;;;;;;23.23;8.73;;;;;;;5.10;93.85;101400.09;4977517;28;20049;-70
2021/03/23 01:47:54;;;;;;;16.88;7.65;;;;;;;5.10;93.57;101394.00;5026898;28;20053;-71
2021/03/23 01:50:21;;;;;;;10.18;5.18;;;;;;;5.03;94.32;101390.69;5014709;28;20053;-71
2021/03/23 01:52:54;;;;;;;10.43;5.10;;;;;;;5.04;93.77;101393.28;5004528;28;20061;-71
2021/03/23 01:55:21;;;;;;;9.48;4.18;;;;;;;5.01;93.98;101395.94;5015500;28;20045;-71
2021/03/23 01:57:49;;;;;;;7.88;4.63;;;;;;;4.99;94.18;101400.31;4979767;28;20072;-72
2021/03/23 02:00:17;;;;;;;12.13;5.03;;;;;;;4.96;94.84;101400.41;5020023;28;20049;-71
2021/03/23 02:02:43;;;;;;;10.32;4.60;;;;;;;4.88;94.86;101397.13;4996738;28;20076;-71
2021/03/23 02:05:19;;;;;;;8.63;4.50;;;;;;;4.82;95.51;101392.06;5028280;28;20061;-70
2021/03/23 02:07:45;;;;;;;9.40;5.23;;;;;;;4.80;95.10;101399.03;5004700;28;20605;-74
2021/03/23 02:10:14;;;;;;;10.70;4.25;;;;;;;4.78;94.91;101393.00;5031587;28;20468;-69
2021/03/23 02:12:41;;;;;;;10.98;4.85;;;;;;;4.71;95.38;101399.25;5004190;28;20060;-70
2021/03/23 02:15:08;;;;;;;9.15;4.78;;;;;;;4.82;95.27;101399.88;5008628;28;20147;-69
2021/03/23 02:17:38;;;;;;;11.35;4.97;;;;;;;4.69;96.04;101401.03;5025023;28;20437;-71
2021/03/23 02:20:12;;;;;;;10.57;5.32;;;;;;;4.72;95.93;101398.34;5005562;28;20673;-70
2021/03/23 02:22:41;;;;;;;8.93;5.40;;;;;;;4.72;96.19;101400.97;5036832;28;20053;-69
2021/03/23 02:25:17;;;;;;;13.30;6.25;;;;;;;4.91;95.22;101401.38;4996802;28;20049;-70
2021/03/23 02:27:44;;;;;;;12.77;7.80;;;;;;;4.78;95.58;101399.09;5009606;28;20049;-72
2021/03/23 02:30:22;;;;;;;15.80;7.40;;;;;;;4.75;96.73;101403.50;5035415;28;20061;-70
2021/03/23 02:32:49;;;;;;;16.92;7.25;;;;;;;4.74;96.92;101402.66;5013896;28;20220;-72
2021/03/23 02:35:28;;;;;;;16.65;7.70;;;;;;;4.83;96.62;101398.97;5023910;28;20045;-70
2021/03/23 02:37:55;;;;;;;15.50;7.95;;;;;;;4.92;95.55;101397.91;5024829;28;20112;-70
2021/03/23 02:40:21;;;;;;;14.40;7.82;;;;;;;4.78;96.33;101399.09;5018016;28;20044;-69
2021/03/23 02:42:48;;;;;;;19.08;8.25;;;;;;;4.89;95.39;101406.66;5022390;28;20068;-71
2021/03/23 02:45:15;;;;;;;17.45;8.00;;;;;;;4.68;96.63;101404.53;5010214;28;20046;-69
2021/03/23 02:47:42;;;;;;;17.80;8.00;;;;;;;4.83;96.22;101404.19;5013546;28;20064;-71
2021/03/23 02:50:09;;;;;;;14.82;8.80;;;;;;;4.83;96.68;101409.41;5007497;28;20482;-69
2021/03/23 02:52:36;;;;;;;13.95;8.68;;;;;;;4.77;97.06;101417.34;5011496;28;20149;-70
2021/03/23 02:55:03;;;;;;;14.43;9.40;;;;;;;4.73;98.11;101415.75;4997081;28;20137;-70
2021/03/23 02:57:30;;;;;;;15.57;8.80;;;;;;;4.61;98.69;101418.59;5006386;28;20057;-70
2021/03/23 02:59:57;;;;;;;14.57;9.82;;;;;;;4.55;99.87;101417.00;5026760;28;20290;-72
2021/03/23 03:02:23;;;;;;;16.10;9.15;;;;;;;4.67;99.13;101421.91;5010442;28;20601;-72
2021/03/23 03:04:50;;;;;;;19.90;10.20;;;;;;;4.55;99.96;101415.25;5011388;28;20045;-72
2021/03/23 03:07:17;;;;;;;20.02;10.50;;;;;;;4.46;100.00;101412.81;5018879;28;20053;-71
2021/03/23 03:09:44;;;;;;;18.60;10.02;;;;;;;4.47;100.00;101426.72;5016988;28;20057;-71
2021/03/23 03:12:12;;;;;;;16.48;10.77;;;;;;;4.49;100.00;101420.56;4997887;28;20053;-72
2021/03/23 03:14:39;;;;;;;23.05;11.45;;;;;;;4.51;100.00;101423.16;5032618;28;20396;-72
2021/03/23 03:17:05;;;;;;;18.23;10.40;;;;;;;4.54;100.00;101421.31;4996405;28;20430;-70
2021/03/23 03:19:32;;;;;;;20.90;10.63;;;;;;;4.59;100.00;101421.22;5023601;28;20537;-70
2021/03/23 03:21:59;;;;;;;16.67;10.15;;;;;;;4.67;100.00;101426.28;4994397;28;20099;-71
2021/03/23 03:24:26;;;;;;;14.93;8.98;;;;;;;4.55;99.46;101430.88;5008249;28;20540;-71
2021/03/23 03:26:52;;;;;;;17.05;9.70;;;;;;;4.59;99.74;101431.66;5007516;28;20148;-71
2021/03/23 03:29:19;;;;;;;17.52;8.95;;;;;;;4.69;99.35;101427.97;5027080;28;20069;-70
2021/03/23 03:31:46;;;;;;;14.90;8.75;;;;;;;4.58;98.49;101435.16;5010668;28;20057;-71
2021/03/23 03:34:13;;;;;;;14.57;8.65;;;;;;;4.55;98.44;101436.09;5010572;28;20052;-71
2021/03/23 03:36:39;;;;;;;15.43;9.38;;;;;;;4.47;99.08;101432.78;5029013;28;20067;-69
2021/03/23 03:39:06;;;;;;;19.48;8.80;;;;;;;4.55;99.24;101445.69;5028035;28;20045;-71
2021/03/23 03:41:34;;;;;;;12.90;8.05;;;;;;;4.51;99.57;101444.88;4997034;28;20067;-70
2021/03/23 03:44:01;;;;;;;13.32;8.70;;;;;;;4.52;99.43;101448.34;4993991;28;20084;-70
2021/03/23 03:46:27;;;;;;;13.45;8.63;;;;;;;4.48;98.58;101444.06;4977966;28;20734;-70
2021/03/23 03:48:54;;;;;;;16.25;8.52;;;;;;;4.44;99.87;101442.41;5006455;28;20049;-71
2021/03/23 03:51:21;;;;;;;18.52;7.97;;;;;;;4.56;98.53;101444.78;5003602;28;20060;-70
2021/03/23 03:53:48;;;;;;;12.70;7.45;;;;;;;4.50;99.01;101443.16;4998603;28;20053;-69
2021/03/23 03:56:15;;;;;;;11.18;7.82;;;;;;;4.51;98.62;101444.88;5011919;28;20060;-69
2021/03/23 03:58:42;;;;;;;10.55;6.97;;;;;;;4.54;97.67;101449.16;5008903;28;20370;-70
2021/03/23 04:01:09;;;;;;;13.45;6.90;;;;;;;4.66;97.44;101450.66;5026323;28;20062;-69
2021/03/23 04:03:36;;;;;;;10.18;7.35;;;;;;;4.50;97.66;101443.16;4995946;28;20152;-69
2021/03/23 04:06:03;;;;;;;13.32;7.18;;;;;;;4.53;97.31;101450.91;5011542;28;20050;-69
2021/03/23 04:08:31;;;;;;;11.60;6.35;;;;;;;4.48;97.51;101451.91;5011457;28;20077;-71
2021/03/23 04:11:00;;;;;;;13.50;6.80;;;;;;;4.45;98.10;101450.19;5009476;28;20498;-70
2021/03/23 04:13:27;;;;;;;12.30;7.28;;;;;;;4.40;98.67;101453.78;5019535;28;20117;-70
2021/03/23 04:15:54;;;;;;;9.68;7.00;;;;;;;4.49;98.18;101451.84;4995366;28;20042;-71
2021/03/23 04:18:23;;;;;;;10.48;6.32;;;;;;;4.53;97.91;101457.88;5023473;28;20061;-71
2021/03/23 04:20:51;;;;;;;9.63;6.35;;;;;;;4.43;98.68;101457.19;5025512;28;20520;-69
2021/03/23 04:23:23;;;;;;;9.80;5.72;;;;;;;4.55;98.34;101456.09;5005301;28;20068;-69
2021/03/23 04:25:51;;;;;;;9.52;7.07;;;;;;;4.55;97.56;101450.91;4996113;28;20057;-70
2021/03/23 04:28:18;;;;;;;7.60;5.30;;;;;;;4.59;97.42;101452.50;5025428;28;20098;-70
2021/03/23 04:30:46;;;;;;;14.45;6.20;;;;;;;4.63;97.52;101450.72;5031913;28;20049;-70
2021/03/23 04:33:14;;;;;;;9.35;6.75;;;;;;;4.45;97.89;101455.41;5006104;28;20046;-69
2021/03/23 04:35:47;;;;;;;10.52;5.80;;;;;;;4.38;99.42;101456.44;5011979;28;20216;-71
2021/03/23 04:38:23;;;;;;;10.05;6.50;;;;;;;4.34;99.18;101459.13;5006438;28;20064;-70
2021/03/23 04:40:50;;;;;;;9.48;6.03;;;;;;;4.43;98.76;101454.59;5009242;28;20524;-70
2021/03/23 04:43:22;;;;;;;7.53;5.50;;;;;;;4.35;98.61;101453.88;5006869;28;20057;-69
2021/03/23 04:45:49;;;;;;;12.73;6.60;;;;;;;4.40;98.46;101461.63;5008026;28;20057;-70
2021/03/23 04:48:16;;;;;;;9.73;5.00;;;;;;;4.34;98.09;101470.41;5008520;28;20076;-70
2021/03/23 04:50:43;;;;;;;8.77;5.07;;;;;;;4.37;98.21;101464.28;5013984;28;20045;-70
2021/03/23 04:53:21;;;;;;;7.55;4.70;;;;;;;4.41;97.35;101464.19;5001399;28;20116;-70
2021/03/23 04:55:48;;;;;;;8.25;4.53;;;;;;;4.29;97.37;101472.25;5015613;28;20057;-70
2021/03/23 04:58:15;;;;;;;8.90;4.57;;;;;;;4.37;97.39;101459.94;5022571;28;20053;-71
2021/03/23 05:00:42;;;;;;;8.07;3.80;;;;;;;4.40;97.20;101472.91;5005710;28;20053;-70
2021/03/23 05:03:17;;;;;;;8.68;3.22;;;;;;;4.48;96.52;101477.97;5028515;28;20136;-70
2021/03/23 05:05:44;;;;;;;7.05;3.92;;;;;;;4.49;96.22;101477.94;4993781;28;20041;-70
2021/03/23 05:08:11;;;;;;;6.38;3.38;;;;;;;4.53;95.24;101476.13;5009183;28;20046;-70
2021/03/23 05:10:38;;;;;;;11.85;3.78;;;;;;;4.48;94.62;101480.56;5014078;28;20555;-70
2021/03/23 05:13:05;;;;;;;6.43;3.20;;;;;;;4.43;96.14;101485.88;5025078;28;20046;-70
2021/03/23 05:15:32;;;;;;;4.63;3.13;;;;;;;4.49;94.97;101482.28;4992400;28;20060;-70
2021/03/23 05:17:59;;;;;;;6.25;3.20;;;;;;;4.43;95.31;101480.66;5010640;28;20041;-70
2021/03/23 05:20:26;;;;;;;7.35;2.83;;;;;;;4.42;95.74;101486.78;5011092;28;20052;-71
2021/03/23 05:22:52;;;;;;;3.90;2.63;;;;;;;4.49;95.27;101490.09;5011879;28;20063;-69
2021/03/23 05:25:19;;;;;;;7.18;3.03;;;;;;;4.40;95.30;101491.16;5005159;28;20068;-70
2021/03/23 05:27:46;;;;;;;6.78;3.58;;;;;;;4.44;94.81;101491.94;5015357;28;20168;-69
2021/03/23 05:30:13;;;;;;;5.93;2.83;;;;;;;4.45;95.43;101489.31;5009677;28;21508;-70
2021/03/23 05:32:40;;;;;;;3.38;2.38;;;;;;;4.45;94.87;101497.13;4980814;28;20061;-70
2021/03/23 05:35:09;;;;;;;4.90;2.92;;;;;;;4.40;95.76;101483.31;5007295;28;20575;-71
2021/03/23 05:37:47;;;;;;;8.00;3.15;;;;;;;4.40;95.54;101493.75;5002563;28;20067;-70
2021/03/23 05:40:44;;;;;;;8.80;3.13;;;;;;;4.38;95.86;101497.28;5014483;28;20084;-71
2021/03/23 05:43:29;;;;;;;7.50;2.75;;;;;;;4.44;96.02;101500.63;4999686;28;20060;-71
2021/03/23 05:45:59;;;;;;;6.45;3.13;;;;;;;4.47;96.48;101495.38;5018927;28;20045;-70
2021/03/23 05:48:29;;;;;;;10.10;3.38;;;;;;;4.41;96.42;101497.22;5008663;28;20059;-70
2021/03/23 05:51:10;;;;;;;5.95;3.50;;;;;;;4.42;96.90;101499.81;4978179;28;20513;-72
2021/03/23 05:54:00;;;;;;;7.50;3.85;;;;;;;4.38;97.18;101497.28;4987186;28;20038;-70
2021/03/23 05:56:28;;;;;;;9.88;4.47;;;;;;;4.40;96.72;101492.91;5008426;28;20269;-71
2021/03/23 05:59:06;;;;;;;5.93;4.05;;;;;;;4.46;96.84;101498.00;4990084;28;20411;-70
2021/03/23 06:01:48;;;;;;;6.85;3.88;;;;;;;4.48;96.46;101491.84;4988393;28;20084;-71
2021/03/23 06:04:23;;;;;;;6.78;4.72;;;;;;;4.40;96.56;101503.31;5019421;28;20118;-70
2021/03/23 06:07:03;;;;;;;8.75;4.25;;;;;;;4.53;96.50;101497.84;5007784;28;20134;-70
2021/03/23 06:09:33;;;;;;;8.30;3.80;;;;;;;4.49;96.14;101497.94;4997745;28;20061;-70
2021/03/23 06:12:02;;;;;;;9.98;4.70;;;;;;;4.54;96.29;101496.94;4993420;28;20440;-71
2021/03/23 06:14:44;;;;;;;7.00;4.32;;;;;;;4.62;96.85;101508.97;5023861;28;20057;-70
2021/03/23 06:17:20;;;;;;;8.48;4.80;;;;;;;4.62;95.83;101501.16;5010248;28;20045;-70
2021/03/23 06:20:25;;;;;;;7.22;4.78;;;;;;;4.70;95.63;101501.88;4995635;28;20095;-71
2021/03/23 06:23:30;;;;;;;12.23;5.07;;;;;;;4.88;95.52;101511.91;4993179;28;20042;-71
2021/03/23 06:26:07;;;;;;;7.65;5.13;;;;;;;5.01;93.90;101510.75;5012784;28;20038;-70
2021/03/23 06:28:59;;;;;;;8.20;4.93;;;;;;;5.09;92.34;101515.81;5006578;28;20148;-70
2021/03/23 06:32:07;;;;;;;7.32;4.80;;;;;;;4.94;94.22;101517.00;5006249;28;20529;-71
2021/03/23 06:34:35;;;;;;;7.97;4.93;;;;;;;5.15;92.56;101517.44;5000677;28;20058;-71
2021/03/23 06:37:21;;;;;;;8.68;4.72;;;;;;;5.07;93.27;101520.19;5020171;28;20053;-71
2021/03/23 06:39:48;;;;;;;14.50;4.22;;;;;;;5.15;92.70;101523.50;4987575;28;20050;-70
2021/03/23 06:42:31;;;;;;;12.05;5.90;;;;;;;5.02;92.99;101530.75;4982773;28;20374;-71
2021/03/23 06:45:12;;;;;;;14.38;5.70;;;;;;;5.00;93.80;101529.06;5003185;28;20128;-72
2021/03/23 06:47:40;;;;;;;13.65;5.25;;;;;;;5.21;92.81;101525.13;5011612;28;20054;-71
2021/03/23 06:50:22;;;;;;;9.77;5.25;;;;;;;5.19;91.83;101533.00;4999789;28;20069;-70
2021/03/23 06:53:10;;;;;;;6.88;4.45;;;;;;;5.10;92.54;101535.81;5011083;28;20056;-71
2021/03/23 06:55:37;;;;;;;7.55;4.40;;;;;;;5.02;92.67;101537.72;5010315;28;20115;-70
2021/03/23 06:58:29;;;;;;;9.00;4.88;;;;;;;4.98;91.79;101539.53;5015340;28;20049;-71
2021/03/23 07:01:11;;;;;;;9.30;5.05;;;;;;;4.79;93.39;101533.84;5037750;28;20057;-72
2021/03/23 07:03:38;;;;;;;11.10;5.22;;;;;;;5.05;93.32;101535.91;5009002;28;20080;-71
2021/03/23 07:06:25;;;;;;;7.13;4.40;;;;;;;5.14;92.14;101534.84;4997283;28;20057;-71
2021/03/23 07:09:14;;;;;;;8.27;4.53;;;;;;;5.20;91.87;101537.31;4997890;28;20056;-72
2021/03/23 07:11:54;;;;;;;9.18;5.15;;;;;;;5.21;91.40;101528.59;5030163;28;20141;-71
2021/03/23 07:14:25;;;;;;;7.82;4.00;;;;;;;5.21;91.18;101540.78;5007852;28;20048;-73
2021/03/23 07:17:05;;;;;;;6.55;4.55;;;;;;;5.23;90.49;101531.19;5011065;28;20124;-73
2021/03/23 07:19:48;;;;;;;9.25;4.15;;;;;;;5.33;90.44;101536.16;4986724;28;20045;-70
2021/03/23 07:22:20;;;;;;;7.70;4.43;;;;;;;5.42;89.98;101531.63;4992119;28;20064;-71
2021/03/23 07:24:56;;;;;;;10.00;4.05;;;;;;;5.22;89.83;101543.38;5035349;28;20049;-72
2021/03/23 07:27:23;;;;;;;;;;;;;;;5.13;91.05;101540.94;5018952;28;20057;-71
2021/03/23 07:29:50;;;;;;;7.65;3.63;;;;;;;5.25;91.32;101547.66;5011013;28;20399;-70
2021/03/23 07:32:33;;;;;;;9.40;3.53;;;;;;;5.32;89.94;101550.09;5033854;28;20057;-71
2021/03/23 07:35:16;;;;;;;7.35;4.07;;;;;;;5.50;89.35;101542.75;5038670;28;20064;-70
2021/03/23 07:37:54;;;;;;;7.97;3.80;;;;;;;5.44;89.10;101551.56;5021054;28;20110;-70
2021/03/23 07:40:45;;;;;;;5.35;3.63;;;;;;;5.23;89.14;101552.06;5003871;28;20110;-70
2021/03/23 07:43:43;;;;;;;15.68;4.45;;;;;;;5.51;88.53;101550.53;5021556;28;20161;-71
2021/03/23 07:46:17;;;;;;;13.95;4.50;;;;;;;5.82;88.60;101560.25;5042474;28;20033;-70
2021/03/23 07:48:47;;;;;;;7.18;3.75;;;;;;;5.84;86.99;101561.06;5011729;28;20057;-71
2021/03/23 07:51:38;;;;;;;17.38;4.28;;;;;;;6.07;86.01;101557.91;5023493;28;20049;-71
2021/03/23 07:54:24;;;;;;;14.57;3.97;;;;;;;6.09;83.51;101561.38;5046306;28;20061;-71
2021/03/23 07:57:28;;;;;;;6.57;3.45;;;;;;;5.68;85.99;101563.22;5023509;28;20397;-71
2021/03/23 08:00:07;;;;;;;7.25;3.67;;;;;;;6.21;83.92;101562.78;5035314;28;20053;-71
2021/03/23 08:02:53;;;;;;;9.10;3.63;;;;;;;6.00;84.82;101564.22;4993770;28;20054;-74
2021/03/23 08:05:34;;;;;;;12.48;8.13;;;;;;;5.83;85.26;101565.44;5013711;28;20281;-70
2021/03/23 08:08:16;;;;;;;8.15;3.55;;;;;;;6.00;84.93;101565.06;5012512;28;20057;-70
2021/03/23 08:11:05;;;;;;;6.78;4.00;;;;;;;5.93;85.17;101568.72;5032238;28;20084;-70
2021/03/23 08:13:45;;;;;;;8.25;3.60;;;;;;;5.96;85.20;101559.97;5023571;28;20064;-73
2021/03/23 08:16:19;;;;;;;5.20;3.38;;;;;;;5.99;84.66;101565.97;5012650;28;20041;-73
2021/03/23 08:19:12;;;;;;;6.53;3.42;;;;;;;6.05;85.61;101578.88;5010657;28;20049;-70
2021/03/23 08:22:14;;;;;;;7.47;3.55;;;;;;;6.09;85.50;101580.53;4988398;28;20049;-71
2021/03/23 08:24:56;;;;;;;8.25;3.25;;;;;;;6.27;84.50;101578.34;5028114;28;20081;-71
2021/03/23 08:27:29;;;;;;;6.38;3.55;;;;;;;6.09;84.23;101588.38;5013368;28;20049;-70
2021/03/23 08:30:32;;;;;;;16.42;4.78;;;;;;;6.01;83.46;101589.44;5018217;28;20049;-70
2021/03/23 08:33:33;;;;;;;13.95;3.90;;;;;;;5.68;83.50;101591.09;5016944;28;20049;-71
2021/03/23 08:36:12;;;;;;;8.45;4.13;;;;;;;5.81;84.25;101596.00;4991362;28;20046;-73
2021/03/23 08:38:46;;;;;;;6.35;3.63;;;;;;;5.78;83.99;101601.28;5029651;28;20061;-69
2021/03/23 08:41:32;;;;;;;6.25;3.20;;;;;;;5.86;83.42;101603.72;5022414;28;20063;-72
2021/03/23 08:44:00;;;;;;;10.23;3.55;;;;;;;5.71;83.76;101601.44;5038237;28;20153;-70
2021/03/23 08:46:34;;;;;;;8.35;3.75;;;;;;;5.47;84.89;101602.88;5011803;28;20065;-71
2021/03/23 08:49:03;;;;;;;5.05;3.40;;;;;;;5.57;84.39;101613.06;5007777;28;20045;-71
2021/03/23 08:51:30;;;;;;;10.75;3.78;;;;;;;5.62;84.37;101614.72;5015523;28;20072;-72
2021/03/23 08:54:02;;;;;;;5.82;3.72;;;;;;;5.47;83.97;101613.31;5030075;28;20052;-72
2021/03/23 08:56:41;;;;;;;8.48;4.30;;;;;;;5.50;84.56;101614.13;5008672;28;20455;-71
2021/03/23 08:59:45;;;;;;;6.63;4.20;;;;;;;5.58;84.09;101616.53;5010266;28;20050;-71
2021/03/23 09:02:12;;;;;;;7.55;3.40;;;;;;;5.72;83.50;101613.59;4939251;28;20046;-71
2021/03/23 09:04:50;;;;;;;8.77;4.35;;;;;;;5.71;83.56;101619.75;4998655;28;20109;-72
2021/03/23 09:07:16;;;;;;;10.50;4.45;;;;;;;5.93;83.01;101623.59;5011369;28;20061;-71
2021/03/23 09:09:45;;;;;;;8.95;3.85;;;;;;;5.99;81.99;101619.97;5008347;28;20049;-73
2021/03/23 09:12:30;;;;;;;5.82;3.50;;;;;;;5.94;82.13;101627.94;5009820;28;20539;-71
2021/03/23 09:15:15;;;;;;;8.65;3.83;;;;;;;5.83;82.74;101629.91;5028875;28;20037;-71
2021/03/23 09:17:56;;;;;;;8.15;3.85;;;;;;;6.09;82.06;101632.81;5031552;28;20060;-72
2021/03/23 09:20:32;;;;;;;8.95;4.00;;;;;;;6.18;82.07;101638.72;5028394;28;20057;-71
2021/03/23 09:23:15;;;;;;;6.78;3.80;;;;;;;6.03;81.78;101638.19;5027461;28;20057;-71
2021/03/23 09:25:44;;;;;;;6.32;3.70;;;;;;;6.14;81.45;101637.94;5003021;28;20073;-72
2021/03/23 09:28:33;;;;;;;9.40;3.47;;;;;;;6.32;80.57;101641.84;5004537;28;20057;-70
2021/03/23 09:31:05;;;;;;;9.05;3.67;;;;;;;6.42;79.83;101637.22;5029765;28;20096;-72
2021/03/23 09:33:32;;;;;;;21.27;3.85;;;;;;;6.32;80.02;101644.47;5027101;28;20064;-72
2021/03/23 09:36:08;;;;;;;8.82;4.25;;;;;;;6.21;80.80;101646.47;4999092;28;20362;-71
2021/03/23 09:38:45;;;;;;;6.40;3.08;;;;;;;6.32;80.28;101654.91;4994503;28;20092;-71
2021/03/23 09:41:21;;;;;;;19.80;4.88;;;;;;;6.33;79.95;101644.41;4989703;28;20104;-71
2021/03/23 09:43:49;;;;;;;11.90;3.42;;;;;;;6.12;80.56;101646.69;5010706;28;20149;-71
2021/03/23 09:46:22;;;;;;;16.13;3.60;;;;;;;6.02;80.91;101646.91;5030156;28;20049;-71
2021/03/23 09:48:49;;;;;;;10.00;3.80;;;;;;;6.00;81.99;101648.72;5024253;28;20084;-71
2021/03/23 09:51:22;;;;;;;6.78;3.58;;;;;;;6.31;80.63;101648.84;5016764;28;20041;-72
2021/03/23 09:53:51;;;;;;;7.32;3.05;;;;;;;6.51;79.50;101645.69;5030088;28;20092;-72
2021/03/23 09:56:23;;;;;;;7.70;4.00;;;;;;;6.80;78.52;101637.09;5017020;28;20045;-72
2021/03/23 09:59:04;;;;;;;9.02;3.55;;;;;;;6.94;78.24;101639.34;4992970;28;20457;-72
2021/03/23 10:01:32;;;;;;;14.32;3.42;;;;;;;6.92;76.93;101642.88;4989279;28;20046;-70
2021/03/23 10:04:02;;;;;;;6.57;3.30;;;;;;;6.99;76.73;101640.06;5013115;28;20081;-71
2021/03/23 10:06:45;;;;;;;10.38;3.22;;;;;;;7.12;75.78;101639.72;5010127;28;20111;-71
2021/03/23 10:09:12;;;;;;;8.05;2.78;;;;;;;7.29;75.06;101645.31;5028705;23;20045;-76
2021/03/23 10:11:42;;;;;;;5.53;2.67;;;;;;;7.13;74.51;101644.06;5016531;28;20053;-75
2021/03/23 10:14:11;;;;;;;7.03;2.75;;;;;;;7.12;74.86;101645.81;5039581;28;20045;-75
2021/03/23 10:16:40;;;;;;;6.53;2.53;;;;;;;7.30;74.41;101641.81;5020410;28;20049;-76
2021/03/23 10:19:21;;;;;;;9.35;3.42;;;;;;;7.82;73.23;101642.84;5032531;28;20053;-74
2021/03/23 10:22:15;;;;;;;5.65;2.95;;;;;;;7.88;71.51;101650.53;5030891;28;20061;-75
2021/03/23 10:24:43;;;;;;;5.82;3.50;;;;;;;7.86;72.64;101650.56;5006842;28;20410;-78
2021/03/23 10:27:15;;;;;;;7.97;2.83;;;;;;;8.12;70.62;101644.50;4989255;28;20482;-73
2021/03/23 10:30:00;;;;;;;6.93;2.80;;;;;;;8.08;71.27;101642.03;4980378;28;20046;-75
2021/03/23 10:32:38;;;;;;;19.92;5.00;;;;;;;8.11;71.63;101655.06;5008616;28;20140;-74
2021/03/23 10:35:11;;;;;;;11.07;3.20;;;;;;;8.17;70.19;101643.50;5027644;28;20314;-75
2021/03/23 10:37:38;;;;;;;6.95;2.97;;;;;;;8.57;68.57;101643.06;5013301;28;20050;-74
2021/03/23 10:40:29;;;;;;;5.03;2.22;;;;;;;8.22;68.14;101644.22;4999352;28;20421;-78
2021/03/23 10:42:56;;;;;;;8.07;2.50;;;;;;;7.92;70.39;101649.50;5031019;28;20088;-74
2021/03/23 10:45:36;;;;;;;9.13;2.05;;;;;;;8.11;69.25;101642.78;5009497;28;20141;-75
2021/03/23 10:48:21;;;;;;;13.82;2.65;;;;;;;8.44;68.35;101642.63;5009772;28;20149;-77
2021/03/23 10:51:25;;;;;;;11.20;2.75;;;;;;;8.53;68.14;101647.56;5006248;28;20053;-77
2021/03/23 10:54:03;;;;;;;6.85;2.55;;;;;;;8.42;67.93;101654.06;5017226;28;20050;-76
2021/03/23 10:56:32;;;;;;;10.90;3.03;;;;;;;8.58;67.82;101642.16;4998997;28;20046;-76
2021/03/23 10:59:08;;;;;;;4.00;2.05;;;;;;;8.85;66.26;101642.94;5018336;28;20079;-76
2021/03/23 11:01:35;;;;;;;15.55;3.13;;;;;;;8.19;67.34;101652.16;4987686;28;20053;-77
2021/03/23 11:04:17;;;;;;;5.45;2.00;;;;;;;8.58;66.82;101650.03;5016071;28;20058;-74
2021/03/23 11:06:44;;;;;;;8.55;2.22;;;;;;;8.57;66.33;101641.28;4995678;28;20147;-77
2021/03/23 11:09:16;;;;;;;6.53;2.13;;;;;;;8.54;65.66;101648.41;4997385;28;20069;-75
2021/03/23 11:11:58;;;;;;;6.55;2.22;;;;;;;8.83;65.99;101650.91;5037293;28;20500;-75
2021/03/23 11:14:25;;;;;;;6.50;2.03;;;;;;;8.16;66.41;101650.53;5031411;28;20099;-78
2021/03/23 11:16:54;;;;;;;20.58;2.92;;;;;;;8.20;66.70;101656.53;5038744;28;20049;-74
2021/03/23 11:19:32;;;;;;;25.75;4.55;;;;;;;8.41;66.12;101645.34;5034737;28;20054;-74
2021/03/23 11:22:04;;;;;;;7.80;2.70;;;;;;;8.74;65.42;101639.88;5000547;28;20046;-75
2021/03/23 11:24:32;;;;;;;6.50;2.33;;;;;;;8.90;64.73;101640.16;4998575;28;20095;-74
2021/03/23 11:27:00;;;;;;;7.95;2.75;;;;;;;9.27;64.59;101643.16;5022248;28;20057;-74
2021/03/23 11:29:27;;;;;;;9.15;2.17;;;;;;;9.11;63.69;101635.00;5013803;28;20061;-72
2021/03/23 11:31:54;;;;;;;4.35;2.08;;;;;;;9.35;63.09;101640.25;4995917;28;20050;-72
2021/03/23 11:34:22;;;;;;;6.90;1.95;;;;;;;9.46;62.96;101645.13;5031797;28;20065;-74
2021/03/23 11:36:50;;;;;;;8.35;2.03;;;;;;;9.88;61.31;101634.69;5015285;28;20041;-73
2021/03/23 11:39:18;;;;;;;5.22;2.53;;;;;;;10.09;59.98;101638.25;5012252;28;20069;-73
2021/03/23 11:42:31;;;;;;;4.20;2.00;;;;;;;10.18;59.09;101627.34;5012246;28;20048;-74
2021/03/23 11:45:04;;;;;;;5.03;2.20;;;;;;;10.24;58.54;101621.84;4963559;28;20051;-72
2021/03/23 11:47:42;;;;;;;9.77;2.45;;;;;;;10.47;58.28;101620.03;4947926;28;20087;-74
2021/03/23 11:50:20;;;;;;;10.02;3.70;;;;;;;10.53;56.68;101614.47;5004972;28;20045;-74
2021/03/23 11:52:48;;;;;;;7.50;1.88;;;;;;;10.84;55.64;101611.38;5009651;28;20046;-73
2021/03/23 11:55:19;;;;;;;9.70;2.15;;;;;;;10.38;56.66;101616.00;5022749;28;20421;-73
2021/03/23 11:57:46;;;;;;;6.75;1.67;;;;;;;10.34;56.96;101625.78;5031320;28;20532;-74